sensor_id;sensor_type;location;lat;lon;timestamp;P1;durP1;ratioP1;P2;durP2;ratioP2
43996;SDS011;34318;45.818;15.964;2023-05-07T00:00:02;11.52;;;9.45;;
43996;SDS011;34318;45.818;15.964;2023-05-07T00:02:33;12.70;;;8.75;;
43996;SDS011;34318;45.818;15.964;2023-05-07T00:05:04;10.48;;;8.82;;
43996;SDS011;34318;45.818;15.964;2023-05-07T00:07:31;16.10;;;9.35;;
43996;SDS011;34318;45.818;15.964;2023-05-07T00:09:59;11.43;;;8.85;;
43996;SDS011;34318;45.818;15.964;2023-05-07T00:12:26;10.18;;;8.80;;
43996;SDS011;34318;45.818;15.964;2023-05-07T00:14:54;9.98;;;8.98;;
43996;SDS011;34318;45.818;15.964;2023-05-07T00:17:21;9.27;;;8.27;;
43996;SDS011;34318;45.818;15.964;2023-05-07T00:19:48;12.30;;;8.50;;
43996;SDS011;34318;45.818;15.964;2023-05-07T00:22:15;9.82;;;8.63;;
43996;SDS011;34318;45.818;15.964;2023-05-07T00:24:43;9.82;;;8.82;;
43996;SDS011;34318;45.818;15.964;2023-05-07T00:27:10;9.70;;;8.77;;
43996;SDS011;34318;45.818;15.964;2023-05-07T00:29:37;8.43;;;7.72;;
43996;SDS011;34318;45.818;15.964;2023-05-07T00:32:05;9.38;;;8.38;;
43996;SDS011;34318;45.818;15.964;2023-05-07T00:34:32;8.88;;;8.07;;
43996;SDS011;34318;45.818;15.964;2023-05-07T00:36:59;10.45;;;8.20;;
43996;SDS011;34318;45.818;15.964;2023-05-07T00:39:26;8.75;;;7.85;;
43996;SDS011;34318;45.818;15.964;2023-05-07T00:41:53;8.02;;;7.30;;
43996;SDS011;34318;45.818;15.964;2023-05-07T00:44:24;9.73;;;8.52;;
43996;SDS011;34318;45.818;15.964;2023-05-07T00:46:51;8.75;;;7.88;;
43996;SDS011;34318;45.818;15.964;2023-05-07T00:49:19;9.07;;;7.63;;
43996;SDS011;34318;45.818;15.964;2023-05-07T00:51:46;8.50;;;7.20;;
43996;SDS011;34318;45.818;15.964;2023-05-07T00:54:13;8.63;;;7.45;;
43996;SDS011;34318;45.818;15.964;2023-05-07T00:56:41;9.30;;;7.35;;
43996;SDS011;34318;45.818;15.964;2023-05-07T00:59:11;7.85;;;7.05;;
43996;SDS011;34318;45.818;15.964;2023-05-07T01:01:38;8.18;;;7.38;;
43996;SDS011;34318;45.818;15.964;2023-05-07T01:04:06;9.20;;;7.70;;
43996;SDS011;34318;45.818;15.964;2023-05-07T01:06:33;7.72;;;6.93;;
43996;SDS011;34318;45.818;15.964;2023-05-07T01:09:01;9.23;;;8.35;;
43996;SDS011;34318;45.818;15.964;2023-05-07T01:11:30;8.57;;;7.78;;
43996;SDS011;34318;45.818;15.964;2023-05-07T01:13:58;8.10;;;7.30;;
43996;SDS011;34318;45.818;15.964;2023-05-07T01:16:26;7.32;;;6.65;;
43996;SDS011;34318;45.818;15.964;2023-05-07T01:18:53;8.50;;;7.65;;
43996;SDS011;34318;45.818;15.964;2023-05-07T01:21:23;8.65;;;7.35;;
43996;SDS011;34318;45.818;15.964;2023-05-07T01:23:53;8.02;;;7.30;;
43996;SDS011;34318;45.818;15.964;2023-05-07T01:26:21;8.18;;;7.47;;
43996;SDS011;34318;45.818;15.964;2023-05-07T01:28:49;9.23;;;8.27;;
43996;SDS011;34318;45.818;15.964;2023-05-07T01:31:17;8.48;;;7.45;;
43996;SDS011;34318;45.818;15.964;2023-05-07T01:33:44;8.20;;;7.40;;
43996;SDS011;34318;45.818;15.964;2023-05-07T01:36:12;8.52;;;7.30;;
43996;SDS011;34318;45.818;15.964;2023-05-07T01:38:40;7.93;;;7.20;;
43996;SDS011;34318;45.818;15.964;2023-05-07T01:41:08;7.60;;;6.82;;
43996;SDS011;34318;45.818;15.964;2023-05-07T01:43:35;8.52;;;7.25;;
43996;SDS011;34318;45.818;15.964;2023-05-07T01:46:03;7.47;;;6.78;;
43996;SDS011;34318;45.818;15.964;2023-05-07T01:48:30;8.65;;;6.80;;
43996;SDS011;34318;45.818;15.964;2023-05-07T01:50:57;6.75;;;6.15;;
43996;SDS011;34318;45.818;15.964;2023-05-07T01:53:26;7.05;;;6.40;;
43996;SDS011;34318;45.818;15.964;2023-05-07T01:55:54;9.18;;;6.63;;
43996;SDS011;34318;45.818;15.964;2023-05-07T01:58:35;7.57;;;6.57;;
43996;SDS011;34318;45.818;15.964;2023-05-07T02:01:02;7.18;;;6.30;;
43996;SDS011;34318;45.818;15.964;2023-05-07T02:03:29;7.05;;;6.38;;
43996;SDS011;34318;45.818;15.964;2023-05-07T02:05:57;6.80;;;6.20;;
43996;SDS011;34318;45.818;15.964;2023-05-07T02:08:24;7.18;;;6.47;;
43996;SDS011;34318;45.818;15.964;2023-05-07T02:10:51;7.15;;;6.45;;
43996;SDS011;34318;45.818;15.964;2023-05-07T02:13:20;7.05;;;6.35;;
43996;SDS011;34318;45.818;15.964;2023-05-07T02:15:48;7.97;;;6.10;;
43996;SDS011;34318;45.818;15.964;2023-05-07T02:18:16;7.00;;;6.10;;
43996;SDS011;34318;45.818;15.964;2023-05-07T02:20:44;6.18;;;5.60;;
43996;SDS011;34318;45.818;15.964;2023-05-07T02:23:11;6.78;;;6.18;;
43996;SDS011;34318;45.818;15.964;2023-05-07T02:25:38;6.80;;;6.15;;
43996;SDS011;34318;45.818;15.964;2023-05-07T02:28:05;6.70;;;6.00;;
43996;SDS011;34318;45.818;15.964;2023-05-07T02:30:33;6.68;;;5.90;;
43996;SDS011;34318;45.818;15.964;2023-05-07T02:33:00;6.55;;;5.78;;
43996;SDS011;34318;45.818;15.964;2023-05-07T02:35:27;6.70;;;6.00;;
43996;SDS011;34318;45.818;15.964;2023-05-07T02:37:54;6.97;;;5.78;;
43996;SDS011;34318;45.818;15.964;2023-05-07T02:40:21;6.53;;;5.72;;
43996;SDS011;34318;45.818;15.964;2023-05-07T02:42:49;6.40;;;5.80;;
43996;SDS011;34318;45.818;15.964;2023-05-07T02:45:16;6.78;;;6.18;;
43996;SDS011;34318;45.818;15.964;2023-05-07T02:47:43;6.45;;;5.82;;
43996;SDS011;34318;45.818;15.964;2023-05-07T02:50:10;6.65;;;6.05;;
43996;SDS011;34318;45.818;15.964;2023-05-07T02:52:38;6.63;;;6.03;;
43996;SDS011;34318;45.818;15.964;2023-05-07T02:55:06;6.47;;;5.93;;
43996;SDS011;34318;45.818;15.964;2023-05-07T02:57:33;6.38;;;5.78;;
43996;SDS011;34318;45.818;15.964;2023-05-07T03:00:09;6.25;;;5.72;;
43996;SDS011;34318;45.818;15.964;2023-05-07T03:02:37;6.65;;;6.05;;
43996;SDS011;34318;45.818;15.964;2023-05-07T03:05:04;6.43;;;5.78;;
43996;SDS011;34318;45.818;15.964;2023-05-07T03:07:32;6.28;;;5.68;;
43996;SDS011;34318;45.818;15.964;2023-05-07T03:09:59;6.45;;;5.28;;
43996;SDS011;34318;45.818;15.964;2023-05-07T03:12:26;7.20;;;5.35;;
43996;SDS011;34318;45.818;15.964;2023-05-07T03:14:53;6.75;;;6.00;;
43996;SDS011;34318;45.818;15.964;2023-05-07T03:17:21;6.13;;;5.50;;
43996;SDS011;34318;45.818;15.964;2023-05-07T03:19:48;6.05;;;5.55;;
43996;SDS011;34318;45.818;15.964;2023-05-07T03:22:15;6.10;;;5.60;;
43996;SDS011;34318;45.818;15.964;2023-05-07T03:24:43;6.22;;;5.40;;
43996;SDS011;34318;45.818;15.964;2023-05-07T03:27:10;5.88;;;5.30;;
43996;SDS011;34318;45.818;15.964;2023-05-07T03:29:37;5.97;;;5.47;;
43996;SDS011;34318;45.818;15.964;2023-05-07T03:32:04;5.70;;;4.97;;
43996;SDS011;34318;45.818;15.964;2023-05-07T03:34:32;5.57;;;5.07;;
43996;SDS011;34318;45.818;15.964;2023-05-07T03:37:00;5.53;;;5.07;;
43996;SDS011;34318;45.818;15.964;2023-05-07T03:39:27;5.68;;;5.18;;
43996;SDS011;34318;45.818;15.964;2023-05-07T03:41:54;5.35;;;4.85;;
43996;SDS011;34318;45.818;15.964;2023-05-07T03:44:21;5.97;;;5.38;;
43996;SDS011;34318;45.818;15.964;2023-05-07T03:46:48;5.93;;;5.32;;
43996;SDS011;34318;45.818;15.964;2023-05-07T03:49:16;8.32;;;5.38;;
43996;SDS011;34318;45.818;15.964;2023-05-07T03:51:43;6.03;;;5.53;;
43996;SDS011;34318;45.818;15.964;2023-05-07T03:54:10;5.72;;;5.28;;
43996;SDS011;34318;45.818;15.964;2023-05-07T03:56:37;6.00;;;5.47;;
43996;SDS011;34318;45.818;15.964;2023-05-07T03:59:05;8.25;;;5.97;;
43996;SDS011;34318;45.818;15.964;2023-05-07T04:01:32;5.28;;;4.88;;
43996;SDS011;34318;45.818;15.964;2023-05-07T04:03:59;5.65;;;5.20;;
43996;SDS011;34318;45.818;15.964;2023-05-07T04:06:26;5.72;;;5.22;;
43996;SDS011;34318;45.818;15.964;2023-05-07T04:08:54;5.45;;;5.00;;
43996;SDS011;34318;45.818;15.964;2023-05-07T04:11:21;6.53;;;5.90;;
43996;SDS011;34318;45.818;15.964;2023-05-07T04:13:48;10.65;;;6.32;;
43996;SDS011;34318;45.818;15.964;2023-05-07T04:16:15;7.18;;;5.68;;
43996;SDS011;34318;45.818;15.964;2023-05-07T04:18:43;5.82;;;5.30;;
43996;SDS011;34318;45.818;15.964;2023-05-07T04:21:16;5.13;;;4.70;;
43996;SDS011;34318;45.818;15.964;2023-05-07T04:23:43;5.70;;;5.20;;
43996;SDS011;34318;45.818;15.964;2023-05-07T04:26:11;5.13;;;4.63;;
43996;SDS011;34318;45.818;15.964;2023-05-07T04:28:38;6.07;;;5.13;;
43996;SDS011;34318;45.818;15.964;2023-05-07T04:31:06;5.60;;;5.10;;
43996;SDS011;34318;45.818;15.964;2023-05-07T04:33:33;5.65;;;5.15;;
43996;SDS011;34318;45.818;15.964;2023-05-07T04:36:01;5.35;;;4.85;;
43996;SDS011;34318;45.818;15.964;2023-05-07T04:38:32;6.28;;;5.10;;
43996;SDS011;34318;45.818;15.964;2023-05-07T04:41:05;5.22;;;4.82;;
43996;SDS011;34318;45.818;15.964;2023-05-07T04:43:33;5.38;;;4.90;;
43996;SDS011;34318;45.818;15.964;2023-05-07T04:46:00;5.35;;;4.85;;
43996;SDS011;34318;45.818;15.964;2023-05-07T04:48:28;5.47;;;4.97;;
43996;SDS011;34318;45.818;15.964;2023-05-07T04:50:55;5.40;;;4.90;;
43996;SDS011;34318;45.818;15.964;2023-05-07T04:53:22;5.13;;;4.70;;
43996;SDS011;34318;45.818;15.964;2023-05-07T04:55:54;5.85;;;5.13;;
43996;SDS011;34318;45.818;15.964;2023-05-07T04:58:22;5.25;;;4.60;;
43996;SDS011;34318;45.818;15.964;2023-05-07T05:00:49;5.10;;;4.68;;
43996;SDS011;34318;45.818;15.964;2023-05-07T05:03:17;5.20;;;4.75;;
43996;SDS011;34318;45.818;15.964;2023-05-07T05:05:44;5.70;;;5.20;;
43996;SDS011;34318;45.818;15.964;2023-05-07T05:08:11;5.43;;;4.93;;
43996;SDS011;34318;45.818;15.964;2023-05-07T05:10:38;4.93;;;4.53;;
43996;SDS011;34318;45.818;15.964;2023-05-07T05:13:07;7.18;;;5.32;;
43996;SDS011;34318;45.818;15.964;2023-05-07T05:15:34;4.63;;;4.22;;
43996;SDS011;34318;45.818;15.964;2023-05-07T05:18:01;4.78;;;4.38;;
43996;SDS011;34318;45.818;15.964;2023-05-07T05:20:28;5.70;;;5.20;;
43996;SDS011;34318;45.818;15.964;2023-05-07T05:22:56;6.18;;;4.80;;
43996;SDS011;34318;45.818;15.964;2023-05-07T05:25:23;5.13;;;4.72;;
43996;SDS011;34318;45.818;15.964;2023-05-07T05:27:50;5.60;;;4.93;;
43996;SDS011;34318;45.818;15.964;2023-05-07T05:30:17;5.63;;;5.15;;
43996;SDS011;34318;45.818;15.964;2023-05-07T05:32:46;5.18;;;4.68;;
43996;SDS011;34318;45.818;15.964;2023-05-07T05:35:14;4.80;;;4.40;;
43996;SDS011;34318;45.818;15.964;2023-05-07T05:37:41;5.18;;;4.65;;
43996;SDS011;34318;45.818;15.964;2023-05-07T05:40:08;5.20;;;4.78;;
43996;SDS011;34318;45.818;15.964;2023-05-07T05:42:36;5.13;;;4.65;;
43996;SDS011;34318;45.818;15.964;2023-05-07T05:45:03;5.05;;;4.55;;
43996;SDS011;34318;45.818;15.964;2023-05-07T05:47:31;7.03;;;4.18;;
43996;SDS011;34318;45.818;15.964;2023-05-07T05:49:58;4.88;;;4.47;;
43996;SDS011;34318;45.818;15.964;2023-05-07T05:52:25;5.88;;;5.05;;
43996;SDS011;34318;45.818;15.964;2023-05-07T05:54:53;5.55;;;4.65;;
43996;SDS011;34318;45.818;15.964;2023-05-07T05:57:20;5.18;;;4.68;;
43996;SDS011;34318;45.818;15.964;2023-05-07T05:59:47;4.90;;;4.50;;
43996;SDS011;34318;45.818;15.964;2023-05-07T06:02:15;5.10;;;4.53;;
43996;SDS011;34318;45.818;15.964;2023-05-07T06:04:42;5.05;;;4.63;;
43996;SDS011;34318;45.818;15.964;2023-05-07T06:07:09;5.20;;;4.72;;
43996;SDS011;34318;45.818;15.964;2023-05-07T06:09:37;5.10;;;4.60;;
43996;SDS011;34318;45.818;15.964;2023-05-07T06:12:04;7.40;;;4.72;;
43996;SDS011;34318;45.818;15.964;2023-05-07T06:14:32;5.22;;;4.60;;
43996;SDS011;34318;45.818;15.964;2023-05-07T06:16:59;6.30;;;5.53;;
43996;SDS011;34318;45.818;15.964;2023-05-07T06:19:26;5.07;;;4.55;;
43996;SDS011;34318;45.818;15.964;2023-05-07T06:21:54;5.75;;;5.20;;
43996;SDS011;34318;45.818;15.964;2023-05-07T06:24:24;4.80;;;4.40;;
43996;SDS011;34318;45.818;15.964;2023-05-07T06:26:51;5.82;;;5.07;;
43996;SDS011;34318;45.818;15.964;2023-05-07T06:29:19;5.07;;;4.60;;
43996;SDS011;34318;45.818;15.964;2023-05-07T06:31:46;4.90;;;4.47;;
43996;SDS011;34318;45.818;15.964;2023-05-07T06:34:13;4.68;;;4.35;;
43996;SDS011;34318;45.818;15.964;2023-05-07T06:36:40;5.05;;;4.65;;
43996;SDS011;34318;45.818;15.964;2023-05-07T06:39:08;5.18;;;4.68;;
43996;SDS011;34318;45.818;15.964;2023-05-07T06:41:35;5.68;;;4.50;;
43996;SDS011;34318;45.818;15.964;2023-05-07T06:44:03;6.25;;;4.85;;
43996;SDS011;34318;45.818;15.964;2023-05-07T06:46:31;5.00;;;4.50;;
43996;SDS011;34318;45.818;15.964;2023-05-07T06:48:58;5.88;;;4.55;;
43996;SDS011;34318;45.818;15.964;2023-05-07T06:51:25;4.35;;;4.05;;
43996;SDS011;34318;45.818;15.964;2023-05-07T06:53:55;5.45;;;4.90;;
43996;SDS011;34318;45.818;15.964;2023-05-07T06:56:23;5.15;;;4.60;;
43996;SDS011;34318;45.818;15.964;2023-05-07T06:58:51;4.63;;;4.22;;
43996;SDS011;34318;45.818;15.964;2023-05-07T07:01:18;4.90;;;4.50;;
43996;SDS011;34318;45.818;15.964;2023-05-07T07:03:46;4.68;;;4.28;;
43996;SDS011;34318;45.818;15.964;2023-05-07T07:06:13;5.70;;;4.70;;
43996;SDS011;34318;45.818;15.964;2023-05-07T07:08:40;4.70;;;4.30;;
43996;SDS011;34318;45.818;15.964;2023-05-07T07:11:08;4.47;;;4.07;;
43996;SDS011;34318;45.818;15.964;2023-05-07T07:13:35;5.47;;;4.30;;
43996;SDS011;34318;45.818;15.964;2023-05-07T07:16:02;4.82;;;4.35;;
43996;SDS011;34318;45.818;15.964;2023-05-07T07:18:30;6.43;;;5.43;;
43996;SDS011;34318;45.818;15.964;2023-05-07T07:20:57;5.47;;;4.93;;
43996;SDS011;34318;45.818;15.964;2023-05-07T07:23:25;5.05;;;4.40;;
43996;SDS011;34318;45.818;15.964;2023-05-07T07:25:52;4.80;;;4.40;;
43996;SDS011;34318;45.818;15.964;2023-05-07T07:28:20;4.57;;;4.18;;
43996;SDS011;34318;45.818;15.964;2023-05-07T07:30:47;4.55;;;4.15;;
43996;SDS011;34318;45.818;15.964;2023-05-07T07:33:15;5.75;;;4.28;;
43996;SDS011;34318;45.818;15.964;2023-05-07T07:35:42;6.70;;;4.45;;
43996;SDS011;34318;45.818;15.964;2023-05-07T07:38:10;6.63;;;4.22;;
43996;SDS011;34318;45.818;15.964;2023-05-07T07:40:37;10.82;;;4.38;;
43996;SDS011;34318;45.818;15.964;2023-05-07T07:43:04;9.10;;;4.55;;
43996;SDS011;34318;45.818;15.964;2023-05-07T07:45:32;6.07;;;4.32;;
43996;SDS011;34318;45.818;15.964;2023-05-07T07:47:59;5.72;;;5.10;;
43996;SDS011;34318;45.818;15.964;2023-05-07T07:50:26;6.05;;;4.68;;
43996;SDS011;34318;45.818;15.964;2023-05-07T07:53:10;8.15;;;4.63;;
43996;SDS011;34318;45.818;15.964;2023-05-07T07:55:39;8.38;;;6.07;;
43996;SDS011;34318;45.818;15.964;2023-05-07T07:58:06;10.32;;;7.82;;
43996;SDS011;34318;45.818;15.964;2023-05-07T08:00:34;13.38;;;10.65;;
43996;SDS011;34318;45.818;15.964;2023-05-07T08:03:01;11.05;;;9.93;;
43996;SDS011;34318;45.818;15.964;2023-05-07T08:05:29;11.07;;;9.02;;
43996;SDS011;34318;45.818;15.964;2023-05-07T08:07:56;12.02;;;10.82;;
43996;SDS011;34318;45.818;15.964;2023-05-07T08:10:24;12.57;;;10.75;;
43996;SDS011;34318;45.818;15.964;2023-05-07T08:12:51;11.23;;;10.13;;
43996;SDS011;34318;45.818;15.964;2023-05-07T08:15:19;12.13;;;10.60;;
43996;SDS011;34318;45.818;15.964;2023-05-07T08:17:46;11.68;;;9.70;;
43996;SDS011;34318;45.818;15.964;2023-05-07T08:20:13;11.95;;;9.43;;
43996;SDS011;34318;45.818;15.964;2023-05-07T08:22:40;9.93;;;8.93;;
43996;SDS011;34318;45.818;15.964;2023-05-07T08:25:08;10.65;;;9.75;;
43996;SDS011;34318;45.818;15.964;2023-05-07T08:27:36;14.10;;;9.57;;
43996;SDS011;34318;45.818;15.964;2023-05-07T08:30:03;12.10;;;9.95;;
43996;SDS011;34318;45.818;15.964;2023-05-07T08:32:31;11.57;;;10.00;;
43996;SDS011;34318;45.818;15.964;2023-05-07T08:34:58;11.70;;;9.30;;
43996;SDS011;34318;45.818;15.964;2023-05-07T08:37:25;10.57;;;9.48;;
43996;SDS011;34318;45.818;15.964;2023-05-07T08:39:52;11.55;;;9.43;;
43996;SDS011;34318;45.818;15.964;2023-05-07T08:42:20;13.90;;;9.35;;
43996;SDS011;34318;45.818;15.964;2023-05-07T08:44:47;12.73;;;10.07;;
43996;SDS011;34318;45.818;15.964;2023-05-07T08:47:22;35.35;;;31.85;;
43996;SDS011;34318;45.818;15.964;2023-05-07T08:49:50;75.43;;;67.35;;
43996;SDS011;34318;45.818;15.964;2023-05-07T08:52:17;92.30;;;82.07;;
43996;SDS011;34318;45.818;15.964;2023-05-07T08:54:46;93.28;;;79.82;;
43996;SDS011;34318;45.818;15.964;2023-05-07T08:57:13;75.35;;;67.35;;
43996;SDS011;34318;45.818;15.964;2023-05-07T08:59:41;57.33;;;51.10;;
43996;SDS011;34318;45.818;15.964;2023-05-07T09:02:08;50.95;;;41.80;;
43996;SDS011;34318;45.818;15.964;2023-05-07T09:04:36;52.10;;;43.70;;
43996;SDS011;34318;45.818;15.964;2023-05-07T09:07:04;51.63;;;46.03;;
43996;SDS011;34318;45.818;15.964;2023-05-07T09:09:32;57.20;;;51.13;;
43996;SDS011;34318;45.818;15.964;2023-05-07T09:12:00;54.83;;;49.17;;
43996;SDS011;34318;45.818;15.964;2023-05-07T09:14:28;45.40;;;40.80;;
43996;SDS011;34318;45.818;15.964;2023-05-07T09:16:59;37.75;;;33.72;;
43996;SDS011;34318;45.818;15.964;2023-05-07T09:19:26;30.02;;;26.98;;
43996;SDS011;34318;45.818;15.964;2023-05-07T09:22:03;26.25;;;23.52;;
43996;SDS011;34318;45.818;15.964;2023-05-07T09:24:30;21.92;;;19.63;;
43996;SDS011;34318;45.818;15.964;2023-05-07T09:27:01;20.58;;;18.30;;
43996;SDS011;34318;45.818;15.964;2023-05-07T09:29:29;17.60;;;15.73;;
43996;SDS011;34318;45.818;15.964;2023-05-07T09:32:01;16.20;;;14.60;;
43996;SDS011;34318;45.818;15.964;2023-05-07T09:34:29;15.13;;;12.70;;
43996;SDS011;34318;45.818;15.964;2023-05-07T09:37:04;13.55;;;12.25;;
43996;SDS011;34318;45.818;15.964;2023-05-07T09:39:44;13.75;;;10.38;;
43996;SDS011;34318;45.818;15.964;2023-05-07T09:42:12;10.68;;;9.63;;
43996;SDS011;34318;45.818;15.964;2023-05-07T09:44:43;12.30;;;10.10;;
43996;SDS011;34318;45.818;15.964;2023-05-07T09:47:11;11.82;;;9.55;;
43996;SDS011;34318;45.818;15.964;2023-05-07T09:49:39;13.63;;;10.10;;
43996;SDS011;34318;45.818;15.964;2023-05-07T09:52:08;10.57;;;9.02;;
43996;SDS011;34318;45.818;15.964;2023-05-07T09:54:36;13.10;;;10.27;;
43996;SDS011;34318;45.818;15.964;2023-05-07T09:57:10;12.70;;;11.48;;
43996;SDS011;34318;45.818;15.964;2023-05-07T09:59:38;15.20;;;12.18;;
43996;SDS011;34318;45.818;15.964;2023-05-07T10:02:05;13.63;;;12.27;;
43996;SDS011;34318;45.818;15.964;2023-05-07T10:04:33;14.13;;;12.63;;
43996;SDS011;34318;45.818;15.964;2023-05-07T10:07:00;15.45;;;12.38;;
43996;SDS011;34318;45.818;15.964;2023-05-07T10:09:28;19.95;;;12.57;;
43996;SDS011;34318;45.818;15.964;2023-05-07T10:11:56;16.98;;;12.73;;
43996;SDS011;34318;45.818;15.964;2023-05-07T10:14:24;19.02;;;11.68;;
43996;SDS011;34318;45.818;15.964;2023-05-07T10:16:52;15.60;;;11.95;;
43996;SDS011;34318;45.818;15.964;2023-05-07T10:19:20;17.10;;;11.38;;
43996;SDS011;34318;45.818;15.964;2023-05-07T10:21:55;13.75;;;10.98;;
43996;SDS011;34318;45.818;15.964;2023-05-07T10:24:27;13.88;;;12.10;;
43996;SDS011;34318;45.818;15.964;2023-05-07T10:26:56;13.43;;;11.68;;
43996;SDS011;34318;45.818;15.964;2023-05-07T10:34:40;13.02;;;9.88;;
43996;SDS011;34318;45.818;15.964;2023-05-07T10:37:08;15.23;;;10.50;;
43996;SDS011;34318;45.818;15.964;2023-05-07T10:39:36;11.75;;;10.25;;
43996;SDS011;34318;45.818;15.964;2023-05-07T10:42:07;13.48;;;10.32;;
43996;SDS011;34318;45.818;15.964;2023-05-07T10:44:35;14.50;;;9.82;;
43996;SDS011;34318;45.818;15.964;2023-05-07T10:47:13;10.27;;;9.00;;
43996;SDS011;34318;45.818;15.964;2023-05-07T10:52:18;12.48;;;10.18;;
43996;SDS011;34318;45.818;15.964;2023-05-07T10:54:45;12.43;;;10.73;;
43996;SDS011;34318;45.818;15.964;2023-05-07T10:59:58;13.60;;;11.95;;
43996;SDS011;34318;45.818;15.964;2023-05-07T11:07:39;15.30;;;11.02;;
43996;SDS011;34318;45.818;15.964;2023-05-07T11:10:06;14.52;;;9.52;;
43996;SDS011;34318;45.818;15.964;2023-05-07T11:15:08;12.85;;;7.65;;
43996;SDS011;34318;45.818;15.964;2023-05-07T11:26:04;6.68;;;6.05;;
43996;SDS011;34318;45.818;15.964;2023-05-07T11:28:36;8.63;;;7.72;;
43996;SDS011;34318;45.818;15.964;2023-05-07T11:31:04;8.10;;;7.40;;
43996;SDS011;34318;45.818;15.964;2023-05-07T11:33:31;7.78;;;7.10;;
43996;SDS011;34318;45.818;15.964;2023-05-07T11:35:59;9.82;;;7.90;;
43996;SDS011;34318;45.818;15.964;2023-05-07T11:38:26;16.58;;;11.38;;
43996;SDS011;34318;45.818;15.964;2023-05-07T11:40:55;16.02;;;11.20;;
43996;SDS011;34318;45.818;15.964;2023-05-07T11:43:23;20.13;;;14.15;;
43996;SDS011;34318;45.818;15.964;2023-05-07T11:45:50;19.77;;;14.40;;
43996;SDS011;34318;45.818;15.964;2023-05-07T11:48:17;21.00;;;14.63;;
43996;SDS011;34318;45.818;15.964;2023-05-07T11:50:52;22.30;;;15.18;;
43996;SDS011;34318;45.818;15.964;2023-05-07T11:53:20;21.33;;;13.02;;
43996;SDS011;34318;45.818;15.964;2023-05-07T11:55:47;18.20;;;13.73;;
43996;SDS011;34318;45.818;15.964;2023-05-07T11:58:20;18.58;;;12.88;;
43996;SDS011;34318;45.818;15.964;2023-05-07T12:00:51;18.67;;;13.10;;
43996;SDS011;34318;45.818;15.964;2023-05-07T12:03:19;21.90;;;13.32;;
43996;SDS011;34318;45.818;15.964;2023-05-07T12:05:47;16.98;;;12.40;;
43996;SDS011;34318;45.818;15.964;2023-05-07T12:08:15;22.15;;;11.85;;
43996;SDS011;34318;45.818;15.964;2023-05-07T12:10:42;15.13;;;11.23;;
43996;SDS011;34318;45.818;15.964;2023-05-07T12:15:46;13.52;;;10.77;;
43996;SDS011;34318;45.818;15.964;2023-05-07T12:18:13;14.30;;;10.15;;
43996;SDS011;34318;45.818;15.964;2023-05-07T12:20:41;12.98;;;10.30;;
43996;SDS011;34318;45.818;15.964;2023-05-07T12:23:09;14.43;;;10.07;;
43996;SDS011;34318;45.818;15.964;2023-05-07T12:25:40;13.65;;;10.90;;
43996;SDS011;34318;45.818;15.964;2023-05-07T12:28:16;13.02;;;9.95;;
43996;SDS011;34318;45.818;15.964;2023-05-07T12:30:44;14.02;;;10.73;;
43996;SDS011;34318;45.818;15.964;2023-05-07T12:33:11;12.95;;;9.15;;
43996;SDS011;34318;45.818;15.964;2023-05-07T12:35:39;10.70;;;9.35;;
43996;SDS011;34318;45.818;15.964;2023-05-07T12:38:08;12.98;;;9.25;;
43996;SDS011;34318;45.818;15.964;2023-05-07T12:40:36;9.73;;;8.48;;
43996;SDS011;34318;45.818;15.964;2023-05-07T12:43:03;9.93;;;7.97;;
43996;SDS011;34318;45.818;15.964;2023-05-07T12:45:31;11.73;;;9.02;;
43996;SDS011;34318;45.818;15.964;2023-05-07T12:48:01;12.07;;;8.40;;
43996;SDS011;34318;45.818;15.964;2023-05-07T12:50:32;9.25;;;8.25;;
43996;SDS011;34318;45.818;15.964;2023-05-07T12:52:59;9.27;;;7.80;;
43996;SDS011;34318;45.818;15.964;2023-05-07T12:55:27;9.70;;;8.30;;
43996;SDS011;34318;45.818;15.964;2023-05-07T12:58:00;9.85;;;7.85;;
43996;SDS011;34318;45.818;15.964;2023-05-07T13:00:32;12.20;;;9.27;;
43996;SDS011;34318;45.818;15.964;2023-05-07T13:02:59;12.00;;;8.57;;
43996;SDS011;34318;45.818;15.964;2023-05-07T13:05:27;8.50;;;7.47;;
43996;SDS011;34318;45.818;15.964;2023-05-07T13:07:54;7.53;;;6.68;;
43996;SDS011;34318;45.818;15.964;2023-05-07T13:10:22;9.98;;;8.00;;
43996;SDS011;34318;45.818;15.964;2023-05-07T13:12:49;8.82;;;7.18;;
43996;SDS011;34318;45.818;15.964;2023-05-07T13:15:17;7.72;;;7.03;;
43996;SDS011;34318;45.818;15.964;2023-05-07T13:17:44;9.02;;;6.85;;
43996;SDS011;34318;45.818;15.964;2023-05-07T13:20:12;8.27;;;7.07;;
43996;SDS011;34318;45.818;15.964;2023-05-07T13:22:39;7.55;;;6.75;;
43996;SDS011;34318;45.818;15.964;2023-05-07T13:25:06;7.25;;;6.57;;
43996;SDS011;34318;45.818;15.964;2023-05-07T13:27:34;6.95;;;6.25;;
43996;SDS011;34318;45.818;15.964;2023-05-07T13:30:03;9.20;;;7.07;;
43996;SDS011;34318;45.818;15.964;2023-05-07T13:32:31;7.40;;;6.70;;
43996;SDS011;34318;45.818;15.964;2023-05-07T13:34:59;7.05;;;6.35;;
43996;SDS011;34318;45.818;15.964;2023-05-07T13:37:26;7.97;;;6.70;;
43996;SDS011;34318;45.818;15.964;2023-05-07T13:39:53;9.10;;;6.95;;
43996;SDS011;34318;45.818;15.964;2023-05-07T13:42:21;10.52;;;6.25;;
43996;SDS011;34318;45.818;15.964;2023-05-07T13:44:48;8.40;;;6.40;;
43996;SDS011;34318;45.818;15.964;2023-05-07T13:47:15;8.57;;;6.85;;
43996;SDS011;34318;45.818;15.964;2023-05-07T13:49:42;7.97;;;6.75;;
43996;SDS011;34318;45.818;15.964;2023-05-07T13:52:09;12.88;;;6.43;;
43996;SDS011;34318;45.818;15.964;2023-05-07T13:54:37;7.35;;;6.22;;
43996;SDS011;34318;45.818;15.964;2023-05-07T13:57:04;10.80;;;7.28;;
43996;SDS011;34318;45.818;15.964;2023-05-07T13:59:31;9.32;;;6.85;;
43996;SDS011;34318;45.818;15.964;2023-05-07T14:01:59;8.45;;;6.18;;
43996;SDS011;34318;45.818;15.964;2023-05-07T14:04:26;7.35;;;6.15;;
43996;SDS011;34318;45.818;15.964;2023-05-07T14:06:53;10.85;;;6.85;;
43996;SDS011;34318;45.818;15.964;2023-05-07T14:09:21;8.40;;;6.75;;
43996;SDS011;34318;45.818;15.964;2023-05-07T14:11:48;8.55;;;6.45;;
43996;SDS011;34318;45.818;15.964;2023-05-07T14:14:17;8.85;;;6.22;;
43996;SDS011;34318;45.818;15.964;2023-05-07T14:16:45;6.80;;;5.80;;
43996;SDS011;34318;45.818;15.964;2023-05-07T14:19:15;8.52;;;6.28;;
43996;SDS011;34318;45.818;15.964;2023-05-07T14:21:42;9.88;;;6.22;;
43996;SDS011;34318;45.818;15.964;2023-05-07T14:24:09;6.57;;;5.97;;
43996;SDS011;34318;45.818;15.964;2023-05-07T14:26:37;8.38;;;6.20;;
43996;SDS011;34318;45.818;15.964;2023-05-07T14:29:05;7.45;;;6.30;;
43996;SDS011;34318;45.818;15.964;2023-05-07T14:31:32;6.32;;;5.72;;
43996;SDS011;34318;45.818;15.964;2023-05-07T14:34:00;7.43;;;6.57;;
43996;SDS011;34318;45.818;15.964;2023-05-07T14:36:27;8.40;;;6.13;;
43996;SDS011;34318;45.818;15.964;2023-05-07T14:38:56;6.20;;;5.60;;
43996;SDS011;34318;45.818;15.964;2023-05-07T14:41:25;8.65;;;6.60;;
43996;SDS011;34318;45.818;15.964;2023-05-07T14:43:52;8.30;;;5.55;;
43996;SDS011;34318;45.818;15.964;2023-05-07T14:46:19;7.85;;;6.47;;
43996;SDS011;34318;45.818;15.964;2023-05-07T14:48:47;9.18;;;6.78;;
43996;SDS011;34318;45.818;15.964;2023-05-07T14:51:14;10.98;;;7.72;;
43996;SDS011;34318;45.818;15.964;2023-05-07T14:53:41;7.82;;;6.80;;
43996;SDS011;34318;45.818;15.964;2023-05-07T14:56:09;8.82;;;6.32;;
43996;SDS011;34318;45.818;15.964;2023-05-07T14:58:36;11.40;;;7.30;;
43996;SDS011;34318;45.818;15.964;2023-05-07T15:01:04;11.38;;;7.32;;